createdAt,value
2022-10-25T00:02:24.703Z,15.90
2022-10-25T00:05:14.390Z,15.90
2022-10-25T00:07:59.873Z,15.90
2022-10-25T00:10:45.630Z,16.00
2022-10-25T00:13:31.335Z,16.00
2022-10-25T00:16:18.785Z,16.00
2022-10-25T00:19:05.207Z,15.90
2022-10-25T00:21:50.746Z,15.90
2022-10-25T00:24:35.923Z,15.90
2022-10-25T00:27:21.540Z,15.90
2022-10-25T00:30:08.277Z,15.90
2022-10-25T00:32:54.463Z,15.90
2022-10-25T00:35:40.194Z,15.90
2022-10-25T00:38:25.454Z,15.90
2022-10-25T00:41:12.904Z,16.00
2022-10-25T00:44:35.832Z,16.00
2022-10-25T00:47:21.188Z,16.00
2022-10-25T00:50:58.401Z,16.00
2022-10-25T00:53:43.869Z,16.10
2022-10-25T00:56:33.979Z,16.10
2022-10-25T00:59:24.693Z,16.10
2022-10-25T01:02:11.223Z,16.00
2022-10-25T01:04:56.786Z,15.90
2022-10-25T01:07:42.076Z,15.90
2022-10-25T01:10:27.655Z,15.90
2022-10-25T01:13:13.010Z,15.90
2022-10-25T01:16:10.563Z,15.80
2022-10-25T01:18:56.106Z,15.80
2022-10-25T01:21:49.807Z,15.80
2022-10-25T01:25:03.232Z,15.80
2022-10-25T01:27:59.716Z,15.70
2022-10-25T01:31:06.569Z,15.60
2022-10-25T01:34:06.177Z,15.60
2022-10-25T01:37:11.222Z,15.70
2022-10-25T01:40:08.996Z,15.70
2022-10-25T01:43:03.220Z,15.70
2022-10-25T01:46:11.226Z,15.70
2022-10-25T01:49:04.251Z,15.70
2022-10-25T01:51:49.823Z,15.60
2022-10-25T01:54:36.514Z,15.60
2022-10-25T01:57:50.073Z,15.60
2022-10-25T02:00:53.190Z,15.60
2022-10-25T02:04:06.367Z,15.60
2022-10-25T02:06:54.775Z,15.60
2022-10-25T02:10:03.901Z,15.60
2022-10-25T02:13:02.182Z,15.60
2022-10-25T02:16:02.288Z,15.60
2022-10-25T02:18:53.564Z,15.50
2022-10-25T02:21:40.611Z,15.50
2022-10-25T02:24:28.935Z,15.50
2022-10-25T02:27:15.885Z,15.50
2022-10-25T02:30:01.899Z,15.50
2022-10-25T02:32:50.140Z,15.60
2022-10-25T02:35:35.350Z,15.60
2022-10-25T02:38:21.253Z,15.60
2022-10-25T02:41:07.129Z,15.50
2022-10-25T02:43:52.962Z,15.60
2022-10-25T02:46:38.556Z,15.50
2022-10-25T02:49:24.037Z,15.50
2022-10-25T02:52:09.301Z,15.50
2022-10-25T02:54:57.395Z,15.40
2022-10-25T02:57:48.210Z,15.40
2022-10-25T03:00:33.704Z,15.40
2022-10-25T03:03:19.127Z,15.40
2022-10-25T03:06:05.180Z,15.30
2022-10-25T03:08:50.924Z,15.30
2022-10-25T03:11:36.332Z,15.30
2022-10-25T03:14:21.867Z,15.20
2022-10-25T03:17:09.932Z,15.20
2022-10-25T03:19:55.264Z,15.20
2022-10-25T03:22:41.782Z,15.20
2022-10-25T03:25:27.387Z,15.20
2022-10-25T03:28:12.840Z,15.10
2022-10-25T03:31:00.005Z,15.10
2022-10-25T03:33:45.647Z,15.10
2022-10-25T03:36:34.261Z,15.00
2022-10-25T03:39:29.058Z,15.00
2022-10-25T03:42:14.265Z,15.10
2022-10-25T03:44:59.881Z,15.00
2022-10-25T03:47:46.048Z,15.00
2022-10-25T03:50:34.628Z,15.00
2022-10-25T03:53:20.284Z,15.00
2022-10-25T03:56:05.765Z,15.00
2022-10-25T03:58:50.948Z,15.00
2022-10-25T04:01:36.797Z,14.90
2022-10-25T04:04:22.388Z,14.90
2022-10-25T04:07:07.685Z,14.90
2022-10-25T04:09:53.214Z,14.90
2022-10-25T04:12:38.834Z,14.90
2022-10-25T04:15:24.940Z,14.90
2022-10-25T04:18:10.287Z,14.90
2022-10-25T04:20:57.699Z,14.90
2022-10-25T04:23:43.019Z,14.90
2022-10-25T04:26:29.346Z,14.90
2022-10-25T04:29:20.128Z,14.80
2022-10-25T04:32:06.244Z,14.90
2022-10-25T04:34:51.568Z,14.90
2022-10-25T04:37:37.069Z,15.00
2022-10-25T04:40:24.084Z,15.00
2022-10-25T04:43:10.224Z,15.10
2022-10-25T04:46:00.718Z,15.10
2022-10-25T04:48:46.947Z,15.20
2022-10-25T04:51:32.192Z,15.20
2022-10-25T04:54:17.803Z,15.30
2022-10-25T04:57:03.341Z,15.20
2022-10-25T04:59:49.210Z,15.20
2022-10-25T05:02:34.659Z,15.20
2022-10-25T05:05:21.056Z,15.20
2022-10-25T05:08:06.581Z,15.20
2022-10-25T05:10:55.626Z,15.20
2022-10-25T05:13:42.054Z,15.30
2022-10-25T05:16:27.907Z,15.30
2022-10-25T05:19:13.392Z,15.30
2022-10-25T05:21:58.596Z,15.30
2022-10-25T05:24:49.344Z,15.20
2022-10-25T05:27:39.204Z,15.20
2022-10-25T05:30:24.511Z,15.20
2022-10-25T05:33:10.343Z,15.10
2022-10-25T05:35:55.668Z,15.10
2022-10-25T05:38:41.851Z,15.20
2022-10-25T05:41:29.718Z,15.30
2022-10-25T05:44:18.056Z,15.30
2022-10-25T05:47:03.667Z,15.40
2022-10-25T05:49:49.467Z,15.40
2022-10-25T05:52:34.684Z,15.40
2022-10-25T05:55:22.812Z,15.50
2022-10-25T05:58:15.041Z,15.40
2022-10-25T06:01:01.371Z,15.40
2022-10-25T06:03:54.493Z,15.40
2022-10-25T06:06:41.127Z,15.20
2022-10-25T06:09:26.291Z,15.20
2022-10-25T06:12:11.819Z,15.10
2022-10-25T06:14:57.126Z,15.10
2022-10-25T06:17:42.502Z,15.10
2022-10-25T06:20:28.443Z,15.10
2022-10-25T06:23:14.182Z,15.00
2022-10-25T06:26:02.667Z,14.90
2022-10-25T06:28:48.555Z,14.90
2022-10-25T06:31:34.199Z,14.90
2022-10-25T06:34:20.669Z,14.90
2022-10-25T06:37:06.068Z,14.90
2022-10-25T06:39:51.490Z,14.80
2022-10-25T06:42:37.102Z,14.90
2022-10-25T06:45:24.065Z,14.90
2022-10-25T06:48:09.348Z,14.80
2022-10-25T06:51:05.854Z,14.90
2022-10-25T06:53:59.368Z,15.00
2022-10-25T06:56:44.916Z,15.00
2022-10-25T06:59:30.398Z,15.00
2022-10-25T07:02:15.555Z,15.00
2022-10-25T07:05:01.053Z,15.00
2022-10-25T07:07:52.264Z,15.10
2022-10-25T07:10:37.935Z,15.10
2022-10-25T07:13:24.335Z,15.20
2022-10-25T07:16:11.401Z,15.20
2022-10-25T07:19:03.945Z,15.20
2022-10-25T07:21:52.182Z,15.30
2022-10-25T07:24:37.672Z,15.20
2022-10-25T07:27:23.253Z,15.20
2022-10-25T07:30:09.309Z,15.10
2022-10-25T07:32:54.713Z,15.20
2022-10-25T07:35:52.289Z,15.10
2022-10-25T07:38:46.561Z,15.10
2022-10-25T07:41:31.940Z,15.10
2022-10-25T07:44:24.666Z,15.10
2022-10-25T07:47:10.177Z,15.10
2022-10-25T07:49:57.785Z,15.10
2022-10-25T07:52:43.132Z,15.20
2022-10-25T07:55:28.657Z,15.30
2022-10-25T07:58:14.280Z,15.30
2022-10-25T08:01:01.458Z,15.40
2022-10-25T08:03:47.036Z,15.50
2022-10-25T08:06:32.460Z,15.60
2022-10-25T08:09:36.817Z,15.50
2022-10-25T08:12:23.351Z,15.50
2022-10-25T08:15:09.280Z,15.50
2022-10-25T08:18:02.614Z,15.60
2022-10-25T08:21:04.134Z,15.70
2022-10-25T08:23:50.131Z,15.80
2022-10-25T08:26:37.034Z,15.80
2022-10-25T08:29:25.844Z,15.70
2022-10-25T08:32:12.481Z,15.70
2022-10-25T08:34:57.902Z,15.70
2022-10-25T08:37:43.442Z,15.80
2022-10-25T08:40:45.990Z,15.90
2022-10-25T08:43:47.981Z,15.80
2022-10-25T08:46:52.407Z,15.90
2022-10-25T08:49:49.612Z,16.00
2022-10-25T08:53:00.003Z,16.10
2022-10-25T08:56:05.247Z,16.20
2022-10-25T08:59:04.217Z,16.20
2022-10-25T09:01:55.265Z,16.30
2022-10-25T09:04:40.845Z,16.30
2022-10-25T09:07:49.989Z,16.50
2022-10-25T09:11:30.903Z,16.60
2022-10-25T09:14:46.908Z,16.80
2022-10-25T09:17:32.107Z,16.80
2022-10-25T09:20:41.916Z,16.90
2022-10-25T09:23:33.257Z,16.90
2022-10-25T09:26:39.427Z,16.90
2022-10-25T09:29:53.316Z,16.90
2022-10-25T09:32:43.439Z,16.90
2022-10-25T09:35:45.272Z,16.90
2022-10-25T09:38:33.569Z,16.90
2022-10-25T09:41:21.599Z,16.90
2022-10-25T09:44:15.181Z,16.90
2022-10-25T09:47:05.644Z,17.00
2022-10-25T09:50:05.743Z,16.90
2022-10-25T09:53:01.360Z,16.90
2022-10-25T09:55:57.298Z,16.80
2022-10-25T09:58:49.452Z,16.90
2022-10-25T10:01:39.454Z,16.90
2022-10-25T10:04:37.205Z,17.00
2022-10-25T10:07:37.244Z,17.20
2022-10-25T10:10:32.199Z,17.30
2022-10-25T10:13:38.799Z,17.30
2022-10-25T10:16:31.823Z,17.40
2022-10-25T10:19:22.774Z,17.30
2022-10-25T10:22:15.679Z,17.40
2022-10-25T10:25:02.620Z,17.50
2022-10-25T10:27:55.728Z,17.60
2022-10-25T10:30:41.967Z,17.50
2022-10-25T10:33:33.025Z,17.50
2022-10-25T10:36:30.220Z,17.50
2022-10-25T10:39:23.357Z,17.60
2022-10-25T10:42:17.717Z,17.70
2022-10-25T10:48:21.050Z,17.80
2022-10-25T10:51:25.101Z,17.90
2022-10-25T10:54:30.051Z,18.10
2022-10-25T10:57:29.883Z,18.10
2022-10-25T11:00:28.620Z,18.40
2022-10-25T11:03:48.973Z,18.60
2022-10-25T11:06:45.318Z,18.60
2022-10-25T11:09:33.925Z,19.20
2022-10-25T11:12:20.264Z,19.50
2022-10-25T11:15:11.963Z,19.60
2022-10-25T11:18:01.647Z,19.90
2022-10-25T11:21:28.388Z,20.40
2022-10-25T11:24:25.395Z,20.90
2022-10-25T11:27:31.893Z,20.80
2022-10-25T11:30:26.858Z,21.30
2022-10-25T11:33:18.568Z,22.20
2022-10-25T11:36:23.164Z,22.30
2022-10-25T11:39:48.139Z,22.00
2022-10-25T11:42:59.338Z,21.70
2022-10-25T11:45:48.336Z,22.30
2022-10-25T11:48:48.392Z,22.70
2022-10-25T11:51:56.757Z,23.00
2022-10-25T11:55:03.731Z,23.40
2022-10-25T11:57:56.248Z,22.70
2022-10-25T12:01:42.417Z,22.20
2022-10-25T12:04:29.545Z,21.80
2022-10-25T12:07:26.876Z,21.60
2022-10-25T12:10:30.931Z,21.50
2022-10-25T12:13:30.708Z,21.40
2022-10-25T12:16:19.832Z,21.40
2022-10-25T12:19:15.157Z,21.60
2022-10-25T12:22:07.636Z,21.90
2022-10-25T12:25:02.581Z,21.90
2022-10-25T12:27:54.349Z,22.80
2022-10-25T12:30:44.035Z,24.00
2022-10-25T12:33:40.877Z,24.30
2022-10-25T12:36:40.715Z,24.20
2022-10-25T12:39:33.858Z,24.10
2022-10-25T12:42:24.913Z,24.30
2022-10-25T12:45:42.516Z,24.80
2022-10-25T12:48:30.902Z,25.90
2022-10-25T12:51:43.771Z,26.70
2022-10-25T12:54:50.271Z,27.40
2022-10-25T12:57:54.172Z,27.80
2022-10-25T13:01:13.151Z,27.50
2022-10-25T13:04:35.973Z,28.10
2022-10-25T13:07:23.235Z,28.90
2022-10-25T13:10:21.818Z,29.20
2022-10-25T13:13:13.586Z,27.80
2022-10-25T13:16:01.424Z,26.40
2022-10-25T13:18:47.872Z,25.20
2022-10-25T13:21:53.257Z,25.20
2022-10-25T13:24:43.140Z,26.30
2022-10-25T13:27:33.716Z,26.10
2022-10-25T13:30:32.178Z,26.10
2022-10-25T13:33:22.661Z,26.50
2022-10-25T13:36:09.330Z,26.80
2022-10-25T13:39:07.824Z,26.50
2022-10-25T13:41:55.711Z,27.30
2022-10-25T13:44:55.710Z,28.10
2022-10-25T13:47:47.696Z,28.80
2022-10-25T13:50:45.997Z,28.90
2022-10-25T13:53:37.897Z,29.10
2022-10-25T13:56:24.348Z,28.90
2022-10-25T13:59:37.106Z,28.50
2022-10-25T14:02:25.813Z,29.30
2022-10-25T14:05:11.857Z,29.80
2022-10-25T14:08:18.987Z,29.90
2022-10-25T14:11:18.983Z,30.20
2022-10-25T14:14:27.169Z,30.80
2022-10-25T14:17:35.175Z,31.10
2022-10-25T14:20:28.371Z,31.20
2022-10-25T14:23:21.311Z,31.10
2022-10-25T14:26:14.335Z,30.80
2022-10-25T14:29:14.188Z,30.70
2022-10-25T14:31:59.283Z,30.60
2022-10-25T14:34:50.846Z,30.60
2022-10-25T14:37:48.771Z,30.50
2022-10-25T14:40:34.464Z,30.50
2022-10-25T14:43:30.368Z,30.10
2022-10-25T14:46:18.812Z,28.90
2022-10-25T14:49:09.270Z,27.10
2022-10-25T14:52:01.150Z,25.70
2022-10-25T14:54:54.194Z,24.70
2022-10-25T14:57:39.577Z,24.30
2022-10-25T15:00:25.623Z,24.10
2022-10-25T15:03:12.963Z,24.80
2022-10-25T15:06:00.566Z,24.90
2022-10-25T15:08:50.801Z,24.20
2022-10-25T15:11:37.480Z,24.40
2022-10-25T15:14:23.441Z,24.90
2022-10-25T15:17:35.561Z,25.60
2022-10-25T15:20:20.869Z,25.50
2022-10-25T15:23:21.559Z,24.90
2022-10-25T15:27:01.225Z,24.70
2022-10-25T15:29:49.265Z,24.30
2022-10-25T15:32:36.151Z,23.60
2022-10-25T15:35:25.558Z,23.50
2022-10-25T15:38:11.442Z,23.50
2022-10-25T15:40:56.812Z,23.70
2022-10-25T15:43:42.434Z,23.90
2022-10-25T15:46:33.293Z,24.00
2022-10-25T15:49:19.425Z,23.90
2022-10-25T15:52:10.656Z,24.00
2022-10-25T15:54:55.947Z,23.90
2022-10-25T15:57:41.336Z,23.70
2022-10-25T16:00:30.796Z,23.20
2022-10-25T16:03:24.531Z,22.60
2022-10-25T16:06:13.129Z,21.80
2022-10-25T16:09:01.123Z,21.20
2022-10-25T16:11:51.754Z,20.70
2022-10-25T16:14:37.803Z,20.20
2022-10-25T16:17:34.366Z,19.80
2022-10-25T16:20:26.365Z,19.40
2022-10-25T16:23:11.887Z,19.00
2022-10-25T16:25:58.235Z,18.70
2022-10-25T16:28:43.618Z,18.40
2022-10-25T16:31:31.408Z,18.20
2022-10-25T16:34:17.799Z,17.90
2022-10-25T16:37:05.491Z,17.80
2022-10-25T16:39:53.040Z,17.60
2022-10-25T16:42:38.866Z,17.40
2022-10-25T16:45:30.884Z,17.20
2022-10-25T16:48:18.651Z,17.10
2022-10-25T16:51:12.604Z,17.00
2022-10-25T16:54:01.039Z,16.80
2022-10-25T16:56:46.384Z,16.70
2022-10-25T16:59:31.789Z,16.50
2022-10-25T17:02:22.438Z,16.40
2022-10-25T17:05:12.445Z,16.20
2022-10-25T17:07:58.121Z,16.10
2022-10-25T17:10:46.095Z,16.00
2022-10-25T17:13:31.703Z,15.90
2022-10-25T17:16:19.732Z,15.80
2022-10-25T17:19:07.931Z,15.60
2022-10-25T17:21:59.432Z,15.60
2022-10-25T17:24:45.104Z,15.50
2022-10-25T17:27:31.175Z,15.40
2022-10-25T17:30:16.554Z,15.40
2022-10-25T17:33:03.253Z,15.30
2022-10-25T17:35:48.550Z,15.20
2022-10-25T17:38:34.214Z,15.10
2022-10-25T17:41:19.841Z,15.10
2022-10-25T17:44:09.958Z,15.00
2022-10-25T17:46:56.454Z,14.90
2022-10-25T17:49:44.128Z,14.90
2022-10-25T17:52:34.614Z,14.80
2022-10-25T17:55:22.680Z,14.70
2022-10-25T17:58:07.976Z,14.70
2022-10-25T18:00:54.464Z,14.60
2022-10-25T18:03:45.838Z,14.60
2022-10-25T18:06:31.047Z,14.50
2022-10-25T18:09:17.241Z,14.60
2022-10-25T18:12:04.951Z,14.50
2022-10-25T18:14:55.529Z,14.40
2022-10-25T18:17:41.476Z,14.40
2022-10-25T18:20:26.935Z,14.30
2022-10-25T18:23:13.459Z,14.20
2022-10-25T18:25:59.117Z,14.20
2022-10-25T18:28:44.462Z,14.20
2022-10-25T18:31:30.816Z,14.10
2022-10-25T18:34:16.117Z,14.10
2022-10-25T18:37:01.829Z,14.00
2022-10-25T18:39:48.478Z,14.00
2022-10-25T18:42:35.824Z,14.00
2022-10-25T18:45:21.002Z,14.00
2022-10-25T18:48:06.249Z,13.90
2022-10-25T18:50:51.793Z,13.90
2022-10-25T18:53:39.296Z,13.80
2022-10-25T18:56:25.735Z,13.80
2022-10-25T18:59:11.423Z,13.70
2022-10-25T19:01:56.768Z,13.70
2022-10-25T19:04:42.384Z,13.70
2022-10-25T19:07:32.418Z,13.70
2022-10-25T19:10:17.951Z,13.60
2022-10-25T19:13:04.491Z,13.60
2022-10-25T19:15:49.951Z,13.60
2022-10-25T19:18:37.496Z,13.60
2022-10-25T19:21:22.932Z,13.50
2022-10-25T19:24:11.786Z,13.50
2022-10-25T19:26:57.951Z,13.50
2022-10-25T19:29:43.363Z,13.40
2022-10-25T19:32:33.400Z,13.40
2022-10-25T19:35:19.507Z,13.40
2022-10-25T19:38:05.028Z,13.40
2022-10-25T19:40:50.363Z,13.40
2022-10-25T19:43:36.428Z,13.30
2022-10-25T19:46:21.911Z,13.30
2022-10-25T19:49:07.338Z,13.30
2022-10-25T19:51:52.449Z,13.30
2022-10-25T19:54:37.905Z,13.30
2022-10-25T19:57:23.402Z,13.20
2022-10-25T20:00:11.348Z,13.20
2022-10-25T20:03:01.650Z,13.20
2022-10-25T20:05:46.887Z,13.20
2022-10-25T20:08:34.283Z,13.10
2022-10-25T20:11:20.807Z,13.10
2022-10-25T20:14:05.984Z,13.10
2022-10-25T20:16:51.762Z,13.10
2022-10-25T20:19:37.269Z,13.10
2022-10-25T20:22:22.841Z,13.10
2022-10-25T20:25:08.587Z,13.10
2022-10-25T20:27:54.003Z,13.10
2022-10-25T20:30:42.539Z,13.00
2022-10-25T20:33:28.218Z,13.00
2022-10-25T20:36:13.969Z,13.00
2022-10-25T20:38:59.585Z,12.90
2022-10-25T20:41:47.977Z,13.00
2022-10-25T20:44:33.435Z,12.90
2022-10-25T20:47:19.044Z,12.90
2022-10-25T20:50:04.585Z,12.90
2022-10-25T20:53:09.147Z,12.90
2022-10-25T20:55:56.036Z,12.90
2022-10-25T20:58:41.521Z,12.90
2022-10-25T21:01:26.871Z,12.90
2022-10-25T21:04:12.031Z,12.90
2022-10-25T21:06:57.564Z,12.80
2022-10-25T21:09:48.445Z,12.80
2022-10-25T21:12:34.740Z,12.80
2022-10-25T21:15:20.151Z,12.80
2022-10-25T21:18:05.745Z,12.80
2022-10-25T21:20:52.296Z,12.80
2022-10-25T21:23:37.742Z,12.80
2022-10-25T21:26:23.749Z,12.70
2022-10-25T21:29:09.144Z,12.70
2022-10-25T21:31:54.905Z,12.70
2022-10-25T21:34:40.100Z,12.70
2022-10-25T21:37:25.706Z,12.70
2022-10-25T21:40:11.291Z,12.60
2022-10-25T21:42:57.870Z,12.60
2022-10-25T21:45:43.225Z,12.60
2022-10-25T21:48:28.677Z,12.60
2022-10-25T21:51:14.764Z,12.60
2022-10-25T21:54:01.428Z,12.50
2022-10-25T21:56:46.791Z,12.50
2022-10-25T21:59:32.332Z,12.50
2022-10-25T22:02:17.918Z,12.50
2022-10-25T22:05:03.434Z,12.50
2022-10-25T22:07:55.799Z,12.50
2022-10-25T22:10:43.960Z,12.50
2022-10-25T22:13:29.291Z,12.50
2022-10-25T22:16:18.102Z,12.50
2022-10-25T22:19:13.091Z,12.50
2022-10-25T22:21:58.522Z,12.50
2022-10-25T22:24:44.064Z,12.50
2022-10-25T22:27:29.536Z,12.50
2022-10-25T22:30:15.168Z,12.50
2022-10-25T22:33:00.526Z,12.50
2022-10-25T22:35:45.845Z,12.50
2022-10-25T22:38:31.392Z,12.50
2022-10-25T22:41:19.703Z,12.50
2022-10-25T22:44:05.452Z,12.50
2022-10-25T22:46:51.196Z,12.50
2022-10-25T22:49:36.478Z,12.50
2022-10-25T22:52:21.880Z,12.50
2022-10-25T22:55:10.353Z,12.50
2022-10-25T22:57:55.930Z,12.50
2022-10-25T23:00:41.399Z,12.50
2022-10-25T23:03:27.167Z,12.50
2022-10-25T23:06:14.894Z,12.50
2022-10-25T23:09:02.395Z,12.50
2022-10-25T23:11:49.909Z,12.50
2022-10-25T23:14:35.247Z,12.50
2022-10-25T23:17:20.931Z,12.50
2022-10-25T23:20:06.633Z,12.50
2022-10-25T23:22:52.339Z,12.50
2022-10-25T23:25:37.557Z,12.50
2022-10-25T23:28:23.011Z,12.60
2022-10-25T23:31:11.676Z,12.60
2022-10-25T23:33:59.238Z,12.60
2022-10-25T23:36:44.949Z,12.70
2022-10-25T23:39:33.299Z,12.70
2022-10-25T23:42:18.683Z,12.70
2022-10-25T23:45:05.312Z,12.70
2022-10-25T23:47:51.211Z,12.70
2022-10-25T23:50:36.821Z,12.80
2022-10-25T23:53:22.276Z,12.80
2022-10-25T23:56:13.055Z,12.80
2022-10-25T23:58:58.760Z,12.80
